sensor_id;sensor_type;location;lat;lon;timestamp;P1;durP1;ratioP1;P2;durP2;ratioP2
26908;SDS011;14477;51.038;4.588;2023-07-22T00:01:25;4.10;;;2.38;;
26908;SDS011;14477;51.038;4.588;2023-07-22T00:03:51;4.27;;;2.53;;
26908;SDS011;14477;51.038;4.588;2023-07-22T00:06:17;6.72;;;2.80;;
26908;SDS011;14477;51.038;4.588;2023-07-22T00:08:42;4.63;;;2.90;;
26908;SDS011;14477;51.038;4.588;2023-07-22T00:11:08;5.47;;;2.60;;
26908;SDS011;14477;51.038;4.588;2023-07-22T00:13:34;5.05;;;2.85;;
26908;SDS011;14477;51.038;4.588;2023-07-22T00:16:00;4.93;;;2.70;;
26908;SDS011;14477;51.038;4.588;2023-07-22T00:18:29;5.07;;;2.88;;
26908;SDS011;14477;51.038;4.588;2023-07-22T00:20:56;4.13;;;2.90;;
26908;SDS011;14477;51.038;4.588;2023-07-22T00:23:22;5.45;;;2.78;;
26908;SDS011;14477;51.038;4.588;2023-07-22T00:25:48;5.10;;;2.88;;
26908;SDS011;14477;51.038;4.588;2023-07-22T00:28:15;4.60;;;2.87;;
26908;SDS011;14477;51.038;4.588;2023-07-22T00:30:41;4.13;;;2.72;;
26908;SDS011;14477;51.038;4.588;2023-07-22T00:33:07;4.03;;;2.60;;
26908;SDS011;14477;51.038;4.588;2023-07-22T00:35:33;4.50;;;2.70;;
26908;SDS011;14477;51.038;4.588;2023-07-22T00:37:59;5.07;;;3.17;;
26908;SDS011;14477;51.038;4.588;2023-07-22T00:40:25;5.55;;;2.72;;
26908;SDS011;14477;51.038;4.588;2023-07-22T00:42:51;4.22;;;2.53;;
26908;SDS011;14477;51.038;4.588;2023-07-22T00:45:17;4.60;;;2.57;;
26908;SDS011;14477;51.038;4.588;2023-07-22T00:47:43;3.97;;;2.50;;
26908;SDS011;14477;51.038;4.588;2023-07-22T00:50:09;4.32;;;2.50;;
26908;SDS011;14477;51.038;4.588;2023-07-22T00:52:35;4.60;;;2.90;;
26908;SDS011;14477;51.038;4.588;2023-07-22T00:55:02;4.85;;;3.03;;
26908;SDS011;14477;51.038;4.588;2023-07-22T00:57:30;5.22;;;3.00;;
26908;SDS011;14477;51.038;4.588;2023-07-22T00:59:55;5.55;;;2.80;;
26908;SDS011;14477;51.038;4.588;2023-07-22T01:02:21;6.43;;;2.90;;
26908;SDS011;14477;51.038;4.588;2023-07-22T01:04:48;5.57;;;3.10;;
26908;SDS011;14477;51.038;4.588;2023-07-22T01:07:15;4.20;;;2.55;;
26908;SDS011;14477;51.038;4.588;2023-07-22T01:09:41;4.13;;;2.67;;
26908;SDS011;14477;51.038;4.588;2023-07-22T01:12:08;4.72;;;2.53;;
26908;SDS011;14477;51.038;4.588;2023-07-22T01:14:35;5.22;;;2.70;;
26908;SDS011;14477;51.038;4.588;2023-07-22T01:17:02;4.15;;;2.70;;
26908;SDS011;14477;51.038;4.588;2023-07-22T01:19:30;5.13;;;2.97;;
26908;SDS011;14477;51.038;4.588;2023-07-22T01:22:00;4.20;;;2.73;;
26908;SDS011;14477;51.038;4.588;2023-07-22T01:24:27;5.10;;;2.90;;
26908;SDS011;14477;51.038;4.588;2023-07-22T01:26:56;4.88;;;3.08;;
26908;SDS011;14477;51.038;4.588;2023-07-22T01:29:23;4.68;;;2.90;;
26908;SDS011;14477;51.038;4.588;2023-07-22T01:31:50;4.30;;;2.60;;
26908;SDS011;14477;51.038;4.588;2023-07-22T01:34:17;5.37;;;2.83;;
26908;SDS011;14477;51.038;4.588;2023-07-22T01:36:47;4.82;;;2.90;;
26908;SDS011;14477;51.038;4.588;2023-07-22T01:39:14;5.30;;;2.97;;
26908;SDS011;14477;51.038;4.588;2023-07-22T01:41:40;5.10;;;2.75;;
26908;SDS011;14477;51.038;4.588;2023-07-22T01:44:06;4.35;;;2.75;;
26908;SDS011;14477;51.038;4.588;2023-07-22T01:46:32;4.77;;;2.77;;
26908;SDS011;14477;51.038;4.588;2023-07-22T01:48:58;4.82;;;2.55;;
26908;SDS011;14477;51.038;4.588;2023-07-22T01:51:24;5.33;;;2.70;;
26908;SDS011;14477;51.038;4.588;2023-07-22T01:53:50;4.75;;;2.58;;
26908;SDS011;14477;51.038;4.588;2023-07-22T01:56:16;5.68;;;2.78;;
26908;SDS011;14477;51.038;4.588;2023-07-22T01:58:42;5.27;;;2.80;;
26908;SDS011;14477;51.038;4.588;2023-07-22T02:01:08;5.93;;;3.10;;
26908;SDS011;14477;51.038;4.588;2023-07-22T02:03:33;4.93;;;2.90;;
26908;SDS011;14477;51.038;4.588;2023-07-22T02:06:03;5.13;;;3.13;;
26908;SDS011;14477;51.038;4.588;2023-07-22T02:08:29;5.35;;;3.00;;
26908;SDS011;14477;51.038;4.588;2023-07-22T02:10:58;5.63;;;2.78;;
26908;SDS011;14477;51.038;4.588;2023-07-22T02:13:31;4.30;;;2.80;;
26908;SDS011;14477;51.038;4.588;2023-07-22T02:15:57;4.97;;;2.93;;
26908;SDS011;14477;51.038;4.588;2023-07-22T02:18:23;5.13;;;2.97;;
26908;SDS011;14477;51.038;4.588;2023-07-22T02:20:49;4.50;;;2.90;;
26908;SDS011;14477;51.038;4.588;2023-07-22T02:23:15;4.50;;;2.60;;
26908;SDS011;14477;51.038;4.588;2023-07-22T02:25:41;4.32;;;2.58;;
26908;SDS011;14477;51.038;4.588;2023-07-22T02:28:07;6.27;;;2.77;;
26908;SDS011;14477;51.038;4.588;2023-07-22T02:30:36;5.50;;;2.80;;
26908;SDS011;14477;51.038;4.588;2023-07-22T02:33:02;5.65;;;3.17;;
26908;SDS011;14477;51.038;4.588;2023-07-22T02:35:30;4.82;;;2.67;;
26908;SDS011;14477;51.038;4.588;2023-07-22T02:37:56;5.87;;;2.80;;
26908;SDS011;14477;51.038;4.588;2023-07-22T02:40:22;4.72;;;2.45;;
26908;SDS011;14477;51.038;4.588;2023-07-22T02:42:47;4.80;;;2.80;;
26908;SDS011;14477;51.038;4.588;2023-07-22T02:45:13;6.00;;;2.78;;
26908;SDS011;14477;51.038;4.588;2023-07-22T02:47:39;8.70;;;2.90;;
26908;SDS011;14477;51.038;4.588;2023-07-22T02:50:08;4.97;;;2.67;;
26908;SDS011;14477;51.038;4.588;2023-07-22T02:52:34;5.47;;;2.83;;
26908;SDS011;14477;51.038;4.588;2023-07-22T02:57:58;5.18;;;2.50;;
26908;SDS011;14477;51.038;4.588;2023-07-22T03:00:24;5.00;;;2.60;;
26908;SDS011;14477;51.038;4.588;2023-07-22T03:02:53;4.95;;;2.80;;
26908;SDS011;14477;51.038;4.588;2023-07-22T03:05:25;5.80;;;2.87;;
26908;SDS011;14477;51.038;4.588;2023-07-22T03:07:53;5.38;;;3.10;;
26908;SDS011;14477;51.038;4.588;2023-07-22T03:10:19;6.70;;;2.90;;
26908;SDS011;14477;51.038;4.588;2023-07-22T03:12:44;4.80;;;2.60;;
26908;SDS011;14477;51.038;4.588;2023-07-22T03:15:10;5.75;;;3.10;;
26908;SDS011;14477;51.038;4.588;2023-07-22T03:17:38;5.63;;;2.85;;
26908;SDS011;14477;51.038;4.588;2023-07-22T03:20:04;5.60;;;2.70;;
26908;SDS011;14477;51.038;4.588;2023-07-22T03:22:34;4.50;;;2.53;;
26908;SDS011;14477;51.038;4.588;2023-07-22T03:24:59;5.50;;;2.70;;
26908;SDS011;14477;51.038;4.588;2023-07-22T03:27:25;7.10;;;2.97;;
26908;SDS011;14477;51.038;4.588;2023-07-22T03:29:51;5.43;;;2.70;;
26908;SDS011;14477;51.038;4.588;2023-07-22T03:32:16;5.27;;;2.80;;
26908;SDS011;14477;51.038;4.588;2023-07-22T03:34:42;5.57;;;2.92;;
26908;SDS011;14477;51.038;4.588;2023-07-22T03:37:08;6.67;;;2.90;;
26908;SDS011;14477;51.038;4.588;2023-07-22T03:39:37;5.25;;;3.00;;
26908;SDS011;14477;51.038;4.588;2023-07-22T03:42:02;6.47;;;3.15;;
26908;SDS011;14477;51.038;4.588;2023-07-22T03:44:29;7.73;;;3.17;;
26908;SDS011;14477;51.038;4.588;2023-07-22T03:46:54;4.75;;;2.63;;
26908;SDS011;14477;51.038;4.588;2023-07-22T03:49:20;6.00;;;3.30;;
26908;SDS011;14477;51.038;4.588;2023-07-22T03:51:46;5.18;;;2.85;;
26908;SDS011;14477;51.038;4.588;2023-07-22T03:54:11;5.83;;;2.90;;
26908;SDS011;14477;51.038;4.588;2023-07-22T03:56:39;6.00;;;2.85;;
26908;SDS011;14477;51.038;4.588;2023-07-22T03:59:06;5.55;;;2.92;;
26908;SDS011;14477;51.038;4.588;2023-07-22T04:01:31;5.67;;;2.90;;
26908;SDS011;14477;51.038;4.588;2023-07-22T04:03:57;5.60;;;2.97;;
26908;SDS011;14477;51.038;4.588;2023-07-22T04:06:23;5.87;;;3.20;;
26908;SDS011;14477;51.038;4.588;2023-07-22T04:08:48;7.75;;;2.90;;
26908;SDS011;14477;51.038;4.588;2023-07-22T04:11:14;5.87;;;3.13;;
26908;SDS011;14477;51.038;4.588;2023-07-22T04:13:40;5.80;;;3.17;;
26908;SDS011;14477;51.038;4.588;2023-07-22T04:16:06;5.63;;;2.85;;
26908;SDS011;14477;51.038;4.588;2023-07-22T04:18:31;4.63;;;3.00;;
26908;SDS011;14477;51.038;4.588;2023-07-22T04:20:59;6.18;;;2.97;;
26908;SDS011;14477;51.038;4.588;2023-07-22T04:23:26;6.97;;;2.83;;
26908;SDS011;14477;51.038;4.588;2023-07-22T04:25:52;5.83;;;3.10;;
26908;SDS011;14477;51.038;4.588;2023-07-22T04:28:18;5.00;;;2.88;;
26908;SDS011;14477;51.038;4.588;2023-07-22T04:30:53;5.63;;;3.00;;
26908;SDS011;14477;51.038;4.588;2023-07-22T04:33:24;4.93;;;2.70;;
26908;SDS011;14477;51.038;4.588;2023-07-22T04:35:50;5.82;;;2.85;;
26908;SDS011;14477;51.038;4.588;2023-07-22T04:38:18;6.10;;;2.88;;
26908;SDS011;14477;51.038;4.588;2023-07-22T04:40:43;5.70;;;2.90;;
26908;SDS011;14477;51.038;4.588;2023-07-22T04:43:09;6.15;;;2.88;;
26908;SDS011;14477;51.038;4.588;2023-07-22T04:45:35;6.07;;;3.08;;
26908;SDS011;14477;51.038;4.588;2023-07-22T04:48:01;5.80;;;3.00;;
26908;SDS011;14477;51.038;4.588;2023-07-22T04:50:27;5.90;;;3.20;;
26908;SDS011;14477;51.038;4.588;2023-07-22T04:52:53;7.18;;;3.17;;
26908;SDS011;14477;51.038;4.588;2023-07-22T04:55:20;6.10;;;3.10;;
26908;SDS011;14477;51.038;4.588;2023-07-22T04:57:45;5.55;;;3.22;;
26908;SDS011;14477;51.038;4.588;2023-07-22T05:00:11;6.37;;;3.50;;
26908;SDS011;14477;51.038;4.588;2023-07-22T05:02:44;6.75;;;3.20;;
26908;SDS011;14477;51.038;4.588;2023-07-22T05:05:14;5.20;;;3.00;;
26908;SDS011;14477;51.038;4.588;2023-07-22T05:07:41;6.43;;;3.33;;
26908;SDS011;14477;51.038;4.588;2023-07-22T05:10:07;7.00;;;3.25;;
26908;SDS011;14477;51.038;4.588;2023-07-22T05:12:40;5.23;;;2.97;;
26908;SDS011;14477;51.038;4.588;2023-07-22T05:15:06;5.28;;;3.20;;
26908;SDS011;14477;51.038;4.588;2023-07-22T05:17:32;7.07;;;3.40;;
26908;SDS011;14477;51.038;4.588;2023-07-22T05:19:58;6.35;;;3.00;;
26908;SDS011;14477;51.038;4.588;2023-07-22T05:22:24;7.13;;;3.00;;
26908;SDS011;14477;51.038;4.588;2023-07-22T05:24:50;7.97;;;3.45;;
26908;SDS011;14477;51.038;4.588;2023-07-22T05:27:19;5.90;;;3.10;;
26908;SDS011;14477;51.038;4.588;2023-07-22T05:29:45;5.53;;;2.80;;
26908;SDS011;14477;51.038;4.588;2023-07-22T05:32:10;6.35;;;3.42;;
26908;SDS011;14477;51.038;4.588;2023-07-22T05:34:36;5.93;;;3.00;;
26908;SDS011;14477;51.038;4.588;2023-07-22T05:37:02;6.78;;;3.13;;
26908;SDS011;14477;51.038;4.588;2023-07-22T05:39:28;6.18;;;3.00;;
26908;SDS011;14477;51.038;4.588;2023-07-22T05:41:54;5.80;;;3.27;;
26908;SDS011;14477;51.038;4.588;2023-07-22T05:44:20;6.85;;;3.38;;
26908;SDS011;14477;51.038;4.588;2023-07-22T05:46:46;5.72;;;3.05;;
26908;SDS011;14477;51.038;4.588;2023-07-22T05:49:12;6.73;;;3.40;;
26908;SDS011;14477;51.038;4.588;2023-07-22T05:51:37;5.30;;;2.97;;
26908;SDS011;14477;51.038;4.588;2023-07-22T05:54:03;8.30;;;3.23;;
26908;SDS011;14477;51.038;4.588;2023-07-22T05:56:29;7.13;;;3.13;;
26908;SDS011;14477;51.038;4.588;2023-07-22T05:58:55;6.43;;;3.35;;
26908;SDS011;14477;51.038;4.588;2023-07-22T06:01:21;5.93;;;3.00;;
26908;SDS011;14477;51.038;4.588;2023-07-22T06:03:48;7.28;;;3.20;;
26908;SDS011;14477;51.038;4.588;2023-07-22T06:06:13;5.57;;;2.90;;
26908;SDS011;14477;51.038;4.588;2023-07-22T06:08:39;6.65;;;3.00;;
26908;SDS011;14477;51.038;4.588;2023-07-22T06:11:05;6.70;;;3.20;;
26908;SDS011;14477;51.038;4.588;2023-07-22T06:13:31;6.10;;;3.20;;
26908;SDS011;14477;51.038;4.588;2023-07-22T06:15:56;7.45;;;3.00;;
26908;SDS011;14477;51.038;4.588;2023-07-22T06:18:22;5.83;;;3.00;;
26908;SDS011;14477;51.038;4.588;2023-07-22T06:20:48;6.20;;;2.92;;
26908;SDS011;14477;51.038;4.588;2023-07-22T06:23:14;5.00;;;2.50;;
26908;SDS011;14477;51.038;4.588;2023-07-22T06:25:40;6.00;;;2.77;;
26908;SDS011;14477;51.038;4.588;2023-07-22T06:28:06;6.53;;;2.90;;
26908;SDS011;14477;51.038;4.588;2023-07-22T06:30:32;5.28;;;2.72;;
26908;SDS011;14477;51.038;4.588;2023-07-22T06:32:57;5.20;;;2.77;;
26908;SDS011;14477;51.038;4.588;2023-07-22T06:35:23;6.30;;;2.60;;
26908;SDS011;14477;51.038;4.588;2023-07-22T06:37:49;6.13;;;2.67;;
26908;SDS011;14477;51.038;4.588;2023-07-22T06:40:15;8.57;;;2.53;;
26908;SDS011;14477;51.038;4.588;2023-07-22T06:42:40;4.80;;;2.70;;
26908;SDS011;14477;51.038;4.588;2023-07-22T06:45:06;6.75;;;2.88;;
26908;SDS011;14477;51.038;4.588;2023-07-22T06:47:33;4.97;;;2.53;;
26908;SDS011;14477;51.038;4.588;2023-07-22T06:49:59;6.38;;;2.70;;
26908;SDS011;14477;51.038;4.588;2023-07-22T06:52:25;5.03;;;2.65;;
26908;SDS011;14477;51.038;4.588;2023-07-22T06:54:51;6.20;;;2.50;;
26908;SDS011;14477;51.038;4.588;2023-07-22T06:57:16;6.03;;;2.55;;
26908;SDS011;14477;51.038;4.588;2023-07-22T06:59:43;6.22;;;2.58;;
26908;SDS011;14477;51.038;4.588;2023-07-22T07:02:08;4.53;;;2.43;;
26908;SDS011;14477;51.038;4.588;2023-07-22T07:04:34;5.85;;;2.55;;
26908;SDS011;14477;51.038;4.588;2023-07-22T07:07:00;5.10;;;2.53;;
26908;SDS011;14477;51.038;4.588;2023-07-22T07:09:26;4.78;;;2.60;;
26908;SDS011;14477;51.038;4.588;2023-07-22T07:11:52;5.97;;;2.58;;
26908;SDS011;14477;51.038;4.588;2023-07-22T07:14:18;4.47;;;2.17;;
26908;SDS011;14477;51.038;4.588;2023-07-22T07:16:43;3.92;;;1.98;;
26908;SDS011;14477;51.038;4.588;2023-07-22T07:19:10;6.10;;;2.50;;
26908;SDS011;14477;51.038;4.588;2023-07-22T07:21:35;4.70;;;2.27;;
26908;SDS011;14477;51.038;4.588;2023-07-22T07:24:01;7.22;;;2.35;;
26908;SDS011;14477;51.038;4.588;2023-07-22T07:26:27;4.50;;;2.33;;
26908;SDS011;14477;51.038;4.588;2023-07-22T07:28:53;4.60;;;2.30;;
26908;SDS011;14477;51.038;4.588;2023-07-22T07:31:19;3.78;;;2.17;;
26908;SDS011;14477;51.038;4.588;2023-07-22T07:33:45;5.53;;;2.30;;
26908;SDS011;14477;51.038;4.588;2023-07-22T07:36:11;5.07;;;2.50;;
26908;SDS011;14477;51.038;4.588;2023-07-22T07:38:36;4.57;;;2.30;;
26908;SDS011;14477;51.038;4.588;2023-07-22T07:41:03;3.30;;;2.27;;
26908;SDS011;14477;51.038;4.588;2023-07-22T07:43:34;4.10;;;2.30;;
26908;SDS011;14477;51.038;4.588;2023-07-22T07:48:52;5.03;;;2.40;;
26908;SDS011;14477;51.038;4.588;2023-07-22T07:51:23;4.57;;;2.30;;
26908;SDS011;14477;51.038;4.588;2023-07-22T07:53:51;5.50;;;2.50;;
26908;SDS011;14477;51.038;4.588;2023-07-22T07:56:17;6.32;;;2.45;;
26908;SDS011;14477;51.038;4.588;2023-07-22T07:58:45;5.22;;;2.30;;
26908;SDS011;14477;51.038;4.588;2023-07-22T08:01:12;4.10;;;2.45;;
26908;SDS011;14477;51.038;4.588;2023-07-22T08:03:41;3.17;;;1.87;;
26908;SDS011;14477;51.038;4.588;2023-07-22T08:06:08;3.60;;;1.83;;
26908;SDS011;14477;51.038;4.588;2023-07-22T08:08:34;4.97;;;2.53;;
26908;SDS011;14477;51.038;4.588;2023-07-22T08:11:02;5.35;;;2.50;;
26908;SDS011;14477;51.038;4.588;2023-07-22T08:13:29;4.20;;;2.20;;
26908;SDS011;14477;51.038;4.588;2023-07-22T08:16:01;4.73;;;2.60;;
26908;SDS011;14477;51.038;4.588;2023-07-22T08:18:28;3.78;;;2.42;;
26908;SDS011;14477;51.038;4.588;2023-07-22T08:20:58;4.68;;;2.30;;
26908;SDS011;14477;51.038;4.588;2023-07-22T08:23:24;3.22;;;2.05;;
26908;SDS011;14477;51.038;4.588;2023-07-22T08:25:50;5.35;;;2.25;;
26908;SDS011;14477;51.038;4.588;2023-07-22T08:28:16;4.97;;;2.23;;
26908;SDS011;14477;51.038;4.588;2023-07-22T08:30:42;4.53;;;2.53;;
26908;SDS011;14477;51.038;4.588;2023-07-22T08:33:09;4.70;;;2.20;;
26908;SDS011;14477;51.038;4.588;2023-07-22T08:35:38;3.97;;;2.00;;
26908;SDS011;14477;51.038;4.588;2023-07-22T08:38:04;4.82;;;2.00;;
26908;SDS011;14477;51.038;4.588;2023-07-22T08:40:37;3.25;;;2.28;;
26908;SDS011;14477;51.038;4.588;2023-07-22T08:43:05;3.60;;;2.08;;
26908;SDS011;14477;51.038;4.588;2023-07-22T08:45:33;4.03;;;2.05;;
26908;SDS011;14477;51.038;4.588;2023-07-22T08:48:02;3.80;;;1.90;;
26908;SDS011;14477;51.038;4.588;2023-07-22T08:50:34;3.22;;;2.03;;
26908;SDS011;14477;51.038;4.588;2023-07-22T08:53:25;4.43;;;2.00;;
26908;SDS011;14477;51.038;4.588;2023-07-22T08:55:52;3.00;;;2.10;;
26908;SDS011;14477;51.038;4.588;2023-07-22T08:58:18;3.00;;;1.77;;
26908;SDS011;14477;51.038;4.588;2023-07-22T09:00:44;3.83;;;1.70;;
26908;SDS011;14477;51.038;4.588;2023-07-22T09:03:12;3.53;;;1.90;;
26908;SDS011;14477;51.038;4.588;2023-07-22T09:05:38;3.45;;;2.10;;
26908;SDS011;14477;51.038;4.588;2023-07-22T09:08:06;3.65;;;1.85;;
26908;SDS011;14477;51.038;4.588;2023-07-22T09:10:33;3.13;;;2.00;;
26908;SDS011;14477;51.038;4.588;2023-07-22T09:13:00;2.57;;;1.80;;
26908;SDS011;14477;51.038;4.588;2023-07-22T09:15:27;3.38;;;1.75;;
26908;SDS011;14477;51.038;4.588;2023-07-22T09:17:54;2.80;;;1.60;;
26908;SDS011;14477;51.038;4.588;2023-07-22T09:20:20;2.55;;;1.80;;
26908;SDS011;14477;51.038;4.588;2023-07-22T09:22:47;2.70;;;1.52;;
26908;SDS011;14477;51.038;4.588;2023-07-22T09:25:23;3.13;;;1.70;;
26908;SDS011;14477;51.038;4.588;2023-07-22T09:27:51;2.75;;;1.33;;
26908;SDS011;14477;51.038;4.588;2023-07-22T09:32:50;2.47;;;1.30;;
26908;SDS011;14477;51.038;4.588;2023-07-22T09:35:17;2.30;;;1.50;;
26908;SDS011;14477;51.038;4.588;2023-07-22T09:37:43;2.53;;;1.33;;
26908;SDS011;14477;51.038;4.588;2023-07-22T09:42:54;1.85;;;1.38;;
26908;SDS011;14477;51.038;4.588;2023-07-22T09:45:25;2.15;;;1.30;;
26908;SDS011;14477;51.038;4.588;2023-07-22T09:47:53;2.00;;;1.40;;
26908;SDS011;14477;51.038;4.588;2023-07-22T09:50:21;1.53;;;1.33;;
26908;SDS011;14477;51.038;4.588;2023-07-22T09:52:49;2.08;;;1.38;;
26908;SDS011;14477;51.038;4.588;2023-07-22T09:55:16;3.67;;;1.50;;
26908;SDS011;14477;51.038;4.588;2023-07-22T09:57:45;3.10;;;1.77;;
26908;SDS011;14477;51.038;4.588;2023-07-22T10:00:21;1.65;;;1.33;;
26908;SDS011;14477;51.038;4.588;2023-07-22T10:02:51;1.83;;;1.27;;
26908;SDS011;14477;51.038;4.588;2023-07-22T10:05:20;2.83;;;1.58;;
26908;SDS011;14477;51.038;4.588;2023-07-22T10:10:18;2.75;;;1.25;;
26908;SDS011;14477;51.038;4.588;2023-07-22T10:12:45;1.67;;;1.30;;
26908;SDS011;14477;51.038;4.588;2023-07-22T10:15:12;2.30;;;1.47;;
26908;SDS011;14477;51.038;4.588;2023-07-22T10:17:40;2.38;;;1.67;;
26908;SDS011;14477;51.038;4.588;2023-07-22T10:20:07;2.00;;;1.25;;
26908;SDS011;14477;51.038;4.588;2023-07-22T10:22:40;2.38;;;1.50;;
26908;SDS011;14477;51.038;4.588;2023-07-22T10:25:14;1.73;;;1.30;;
26908;SDS011;14477;51.038;4.588;2023-07-22T10:27:41;1.60;;;1.30;;
26908;SDS011;14477;51.038;4.588;2023-07-22T10:30:09;2.20;;;1.42;;
26908;SDS011;14477;51.038;4.588;2023-07-22T10:35:10;1.55;;;1.20;;
26908;SDS011;14477;51.038;4.588;2023-07-22T10:37:42;2.20;;;1.20;;
26908;SDS011;14477;51.038;4.588;2023-07-22T10:45:27;1.23;;;1.13;;
26908;SDS011;14477;51.038;4.588;2023-07-22T10:48:35;2.17;;;1.30;;
26908;SDS011;14477;51.038;4.588;2023-07-22T10:50:48;1.55;;;1.30;;
26908;SDS011;14477;51.038;4.588;2023-07-22T11:01:44;1.20;;;1.10;;
26908;SDS011;14477;51.038;4.588;2023-07-22T11:14:27;1.23;;;1.02;;
26908;SDS011;14477;51.038;4.588;2023-07-22T11:16:58;1.60;;;0.98;;
26908;SDS011;14477;51.038;4.588;2023-07-22T11:19:26;1.33;;;1.20;;
26908;SDS011;14477;51.038;4.588;2023-07-22T11:21:52;1.70;;;1.30;;
26908;SDS011;14477;51.038;4.588;2023-07-22T11:24:19;1.60;;;1.05;;
26908;SDS011;14477;51.038;4.588;2023-07-22T11:26:46;1.20;;;1.10;;
26908;SDS011;14477;51.038;4.588;2023-07-22T11:29:12;1.50;;;1.10;;
26908;SDS011;14477;51.038;4.588;2023-07-22T11:31:43;1.60;;;1.10;;
26908;SDS011;14477;51.038;4.588;2023-07-22T11:36:37;1.52;;;1.02;;
26908;SDS011;14477;51.038;4.588;2023-07-22T11:39:04;1.43;;;0.93;;
26908;SDS011;14477;51.038;4.588;2023-07-22T11:41:34;2.50;;;1.10;;
26908;SDS011;14477;51.038;4.588;2023-07-22T11:44:01;1.60;;;1.10;;
26908;SDS011;14477;51.038;4.588;2023-07-22T11:46:35;1.20;;;1.10;;
26908;SDS011;14477;51.038;4.588;2023-07-22T11:49:11;1.73;;;1.20;;
26908;SDS011;14477;51.038;4.588;2023-07-22T11:51:37;1.77;;;1.30;;
26908;SDS011;14477;51.038;4.588;2023-07-22T11:54:08;1.38;;;1.27;;
26908;SDS011;14477;51.038;4.588;2023-07-22T11:56:33;1.60;;;1.40;;
26908;SDS011;14477;51.038;4.588;2023-07-22T11:58:59;2.03;;;1.30;;
26908;SDS011;14477;51.038;4.588;2023-07-22T12:01:28;2.13;;;1.20;;
26908;SDS011;14477;51.038;4.588;2023-07-22T12:04:00;1.25;;;1.00;;
26908;SDS011;14477;51.038;4.588;2023-07-22T12:06:26;1.98;;;1.30;;
26908;SDS011;14477;51.038;4.588;2023-07-22T12:08:52;1.33;;;1.23;;
26908;SDS011;14477;51.038;4.588;2023-07-22T12:11:19;1.67;;;1.15;;
26908;SDS011;14477;51.038;4.588;2023-07-22T12:13:46;1.30;;;1.20;;
26908;SDS011;14477;51.038;4.588;2023-07-22T12:16:21;1.92;;;1.20;;
26908;SDS011;14477;51.038;4.588;2023-07-22T12:18:54;1.77;;;1.30;;
26908;SDS011;14477;51.038;4.588;2023-07-22T12:21:21;1.33;;;1.23;;
26908;SDS011;14477;51.038;4.588;2023-07-22T12:23:47;1.98;;;1.23;;
26908;SDS011;14477;51.038;4.588;2023-07-22T12:26:13;1.80;;;1.25;;
26908;SDS011;14477;51.038;4.588;2023-07-22T12:28:38;1.50;;;1.20;;
26908;SDS011;14477;51.038;4.588;2023-07-22T12:31:04;1.70;;;1.30;;
26908;SDS011;14477;51.038;4.588;2023-07-22T12:33:30;1.30;;;1.20;;
26908;SDS011;14477;51.038;4.588;2023-07-22T12:35:56;1.65;;;1.38;;
26908;SDS011;14477;51.038;4.588;2023-07-22T12:38:23;2.05;;;1.35;;
26908;SDS011;14477;51.038;4.588;2023-07-22T12:40:48;1.63;;;1.23;;
26908;SDS011;14477;51.038;4.588;2023-07-22T12:43:14;1.77;;;1.23;;
26908;SDS011;14477;51.038;4.588;2023-07-22T12:45:40;1.80;;;1.20;;
26908;SDS011;14477;51.038;4.588;2023-07-22T12:48:06;1.50;;;1.23;;
26908;SDS011;14477;51.038;4.588;2023-07-22T12:50:31;1.83;;;1.30;;
26908;SDS011;14477;51.038;4.588;2023-07-22T12:52:58;1.48;;;1.20;;
26908;SDS011;14477;51.038;4.588;2023-07-22T12:55:24;2.87;;;1.17;;
26908;SDS011;14477;51.038;4.588;2023-07-22T12:57:51;1.58;;;1.30;;
26908;SDS011;14477;51.038;4.588;2023-07-22T13:00:17;1.73;;;1.40;;
26908;SDS011;14477;51.038;4.588;2023-07-22T13:02:42;1.60;;;1.30;;
26908;SDS011;14477;51.038;4.588;2023-07-22T13:05:08;1.87;;;1.40;;
26908;SDS011;14477;51.038;4.588;2023-07-22T13:07:37;2.17;;;1.30;;
26908;SDS011;14477;51.038;4.588;2023-07-22T13:10:03;2.00;;;1.45;;
26908;SDS011;14477;51.038;4.588;2023-07-22T13:12:32;2.40;;;1.40;;
26908;SDS011;14477;51.038;4.588;2023-07-22T13:14:57;2.72;;;1.50;;
26908;SDS011;14477;51.038;4.588;2023-07-22T13:17:23;2.53;;;1.50;;
26908;SDS011;14477;51.038;4.588;2023-07-22T13:19:49;2.40;;;1.27;;
26908;SDS011;14477;51.038;4.588;2023-07-22T13:22:14;1.95;;;1.20;;
26908;SDS011;14477;51.038;4.588;2023-07-22T13:24:40;2.27;;;1.33;;
26908;SDS011;14477;51.038;4.588;2023-07-22T13:27:06;1.30;;;1.20;;
26908;SDS011;14477;51.038;4.588;2023-07-22T13:29:32;1.20;;;1.10;;
26908;SDS011;14477;51.038;4.588;2023-07-22T13:31:58;1.87;;;1.20;;
26908;SDS011;14477;51.038;4.588;2023-07-22T13:34:24;1.52;;;1.10;;
26908;SDS011;14477;51.038;4.588;2023-07-22T13:36:50;1.50;;;1.27;;
26908;SDS011;14477;51.038;4.588;2023-07-22T13:39:16;1.67;;;1.30;;
26908;SDS011;14477;51.038;4.588;2023-07-22T13:41:42;1.70;;;1.20;;
26908;SDS011;14477;51.038;4.588;2023-07-22T13:44:08;1.25;;;1.00;;
26908;SDS011;14477;51.038;4.588;2023-07-22T13:46:33;1.50;;;1.17;;
26908;SDS011;14477;51.038;4.588;2023-07-22T13:48:59;1.47;;;1.20;;
26908;SDS011;14477;51.038;4.588;2023-07-22T13:51:25;1.55;;;1.10;;
26908;SDS011;14477;51.038;4.588;2023-07-22T13:53:51;1.30;;;1.07;;
26908;SDS011;14477;51.038;4.588;2023-07-22T13:56:19;1.90;;;1.20;;
26908;SDS011;14477;51.038;4.588;2023-07-22T13:58:45;1.48;;;1.27;;
26908;SDS011;14477;51.038;4.588;2023-07-22T14:01:12;2.50;;;1.13;;
26908;SDS011;14477;51.038;4.588;2023-07-22T14:03:38;1.30;;;1.10;;
26908;SDS011;14477;51.038;4.588;2023-07-22T14:06:04;2.38;;;1.10;;
26908;SDS011;14477;51.038;4.588;2023-07-22T14:08:30;2.23;;;1.10;;
26908;SDS011;14477;51.038;4.588;2023-07-22T14:10:55;1.40;;;1.00;;
26908;SDS011;14477;51.038;4.588;2023-07-22T14:13:21;1.27;;;1.00;;
26908;SDS011;14477;51.038;4.588;2023-07-22T14:15:47;1.65;;;1.20;;
26908;SDS011;14477;51.038;4.588;2023-07-22T14:18:13;1.30;;;1.00;;
26908;SDS011;14477;51.038;4.588;2023-07-22T14:20:42;1.30;;;1.05;;
26908;SDS011;14477;51.038;4.588;2023-07-22T14:23:08;1.48;;;1.10;;
26908;SDS011;14477;51.038;4.588;2023-07-22T14:25:37;1.70;;;1.10;;
26908;SDS011;14477;51.038;4.588;2023-07-22T14:28:03;2.53;;;1.30;;
26908;SDS011;14477;51.038;4.588;2023-07-22T14:30:29;1.52;;;1.00;;
26908;SDS011;14477;51.038;4.588;2023-07-22T14:32:55;2.70;;;1.20;;
26908;SDS011;14477;51.038;4.588;2023-07-22T14:35:23;2.03;;;1.10;;
26908;SDS011;14477;51.038;4.588;2023-07-22T14:37:49;4.00;;;1.20;;
26908;SDS011;14477;51.038;4.588;2023-07-22T14:40:16;1.48;;;1.10;;
26908;SDS011;14477;51.038;4.588;2023-07-22T14:42:41;2.63;;;1.20;;
26908;SDS011;14477;51.038;4.588;2023-07-22T14:45:07;1.40;;;1.10;;
26908;SDS011;14477;51.038;4.588;2023-07-22T14:47:33;1.73;;;1.02;;
26908;SDS011;14477;51.038;4.588;2023-07-22T14:50:00;1.30;;;0.93;;
26908;SDS011;14477;51.038;4.588;2023-07-22T14:52:26;1.48;;;1.10;;
26908;SDS011;14477;51.038;4.588;2023-07-22T14:54:52;1.48;;;1.10;;
26908;SDS011;14477;51.038;4.588;2023-07-22T14:57:18;1.75;;;1.10;;
26908;SDS011;14477;51.038;4.588;2023-07-22T14:59:43;1.80;;;1.10;;
26908;SDS011;14477;51.038;4.588;2023-07-22T15:02:09;1.60;;;1.02;;
26908;SDS011;14477;51.038;4.588;2023-07-22T15:04:35;1.40;;;1.00;;
26908;SDS011;14477;51.038;4.588;2023-07-22T15:07:02;1.95;;;1.20;;
26908;SDS011;14477;51.038;4.588;2023-07-22T15:09:27;2.07;;;1.17;;
26908;SDS011;14477;51.038;4.588;2023-07-22T15:11:53;2.97;;;1.20;;
26908;SDS011;14477;51.038;4.588;2023-07-22T15:14:19;2.00;;;1.00;;
26908;SDS011;14477;51.038;4.588;2023-07-22T15:16:45;1.85;;;1.00;;
26908;SDS011;14477;51.038;4.588;2023-07-22T15:19:11;1.63;;;1.10;;
26908;SDS011;14477;51.038;4.588;2023-07-22T15:21:36;2.13;;;1.20;;
26908;SDS011;14477;51.038;4.588;2023-07-22T15:24:03;2.17;;;1.15;;
26908;SDS011;14477;51.038;4.588;2023-07-22T15:26:30;2.33;;;1.20;;
26908;SDS011;14477;51.038;4.588;2023-07-22T15:28:55;1.60;;;0.90;;